createdAt,value
2022-12-13T00:01:57.703Z,-9.73
2022-12-13T00:04:59.396Z,-9.76
2022-12-13T00:08:01.873Z,-9.72
2022-12-13T00:11:06.512Z,-9.62
2022-12-13T00:14:08.131Z,-9.62
2022-12-13T00:17:09.760Z,-9.66
2022-12-13T00:20:12.646Z,-9.57
2022-12-13T00:23:14.281Z,-9.64
2022-12-13T00:26:19.089Z,-9.63
2022-12-13T00:29:20.806Z,-9.63
2022-12-13T00:32:22.437Z,-9.55
2022-12-13T00:35:24.672Z,-9.44
2022-12-13T00:38:26.224Z,-9.36
2022-12-13T00:41:33.525Z,-9.39
2022-12-13T00:44:35.167Z,-9.36
2022-12-13T00:47:36.865Z,-9.37
2022-12-13T00:50:38.802Z,-9.40
2022-12-13T00:53:40.420Z,-9.42
2022-12-13T00:56:42.332Z,-9.37
2022-12-13T00:59:43.911Z,-9.49
2022-12-13T01:02:45.829Z,-9.54
2022-12-13T01:06:14.325Z,-9.55
2022-12-13T01:09:19.945Z,-9.57
2022-12-13T01:12:21.756Z,-9.63
2022-12-13T01:15:23.215Z,-9.66
2022-12-13T01:18:24.778Z,-9.60
2022-12-13T01:21:26.496Z,-9.65
2022-12-13T01:24:29.526Z,-9.82
2022-12-13T01:27:31.139Z,-9.80
2022-12-13T01:30:32.810Z,-9.73
2022-12-13T01:33:34.651Z,-9.66
2022-12-13T01:36:38.209Z,-9.67
2022-12-13T01:39:39.907Z,-9.72
2022-12-13T01:42:41.583Z,-9.71
2022-12-13T01:45:44.058Z,-9.61
2022-12-13T01:49:24.221Z,-9.53
2022-12-13T01:52:26.127Z,-9.55
2022-12-13T01:55:31.878Z,-9.58
2022-12-13T01:58:36.688Z,-9.62
2022-12-13T02:01:39.030Z,-9.53
2022-12-13T02:04:50.821Z,-9.54
2022-12-13T02:07:53.051Z,-9.56
2022-12-13T02:10:54.997Z,-9.49
2022-12-13T02:13:56.549Z,-9.45
2022-12-13T02:17:11.735Z,-9.35
2022-12-13T02:20:22.601Z,-9.35
2022-12-13T02:23:45.864Z,-9.32
2022-12-13T02:27:30.295Z,-9.31
2022-12-13T02:30:43.150Z,-9.26
2022-12-13T02:34:00.990Z,-9.32
2022-12-13T02:37:37.736Z,-9.35
2022-12-13T02:40:45.316Z,-9.31
2022-12-13T02:43:53.962Z,-9.33
2022-12-13T02:47:12.741Z,-9.37
2022-12-13T02:50:26.160Z,-9.40
2022-12-13T02:53:28.983Z,-9.47
2022-12-13T02:56:32.101Z,-9.45
2022-12-13T02:59:36.696Z,-9.52
2022-12-13T03:03:12.124Z,-9.49
2022-12-13T03:06:34.288Z,-9.51
2022-12-13T03:10:18.750Z,-9.51
2022-12-13T03:13:38.986Z,-9.60
2022-12-13T03:16:44.017Z,-9.63
2022-12-13T03:19:47.198Z,-9.58
2022-12-13T03:22:48.793Z,-9.69
2022-12-13T03:25:55.816Z,-9.73
2022-12-13T03:28:57.412Z,-9.75
2022-12-13T03:32:00.126Z,-9.70
2022-12-13T03:35:01.744Z,-9.62
2022-12-13T03:38:04.150Z,-9.60
2022-12-13T03:41:09.872Z,-9.69
2022-12-13T03:44:11.432Z,-9.67
2022-12-13T03:47:12.892Z,-9.65
2022-12-13T03:50:27.200Z,-9.55
2022-12-13T03:53:33.147Z,-9.45
2022-12-13T03:56:35.456Z,-9.53
2022-12-13T03:59:39.047Z,-9.59
2022-12-13T04:02:40.725Z,-9.55
2022-12-13T04:05:42.789Z,-9.48
2022-12-13T04:08:44.438Z,-9.41
2022-12-13T04:12:04.312Z,-9.51
2022-12-13T04:15:06.607Z,-9.43
2022-12-13T04:18:08.260Z,-9.44
2022-12-13T04:21:10.632Z,-9.51
2022-12-13T04:24:12.211Z,-9.37
2022-12-13T04:27:13.793Z,-9.32
2022-12-13T04:30:15.384Z,-9.31
2022-12-13T04:33:16.976Z,-9.30
2022-12-13T04:36:31.872Z,-9.27
2022-12-13T04:39:34.684Z,-9.29
2022-12-13T04:42:36.544Z,-9.25
2022-12-13T04:45:38.325Z,-9.25
2022-12-13T04:48:39.956Z,-9.29
2022-12-13T04:51:41.601Z,-9.34
2022-12-13T04:54:56.147Z,-9.54
2022-12-13T04:57:58.081Z,-9.56
2022-12-13T05:00:59.782Z,-9.57
2022-12-13T05:04:04.225Z,-9.67
2022-12-13T05:07:05.860Z,-9.76
2022-12-13T05:10:08.281Z,-9.76
2022-12-13T05:13:09.855Z,-9.76
2022-12-13T05:16:11.840Z,-9.87
2022-12-13T05:19:13.937Z,-9.98
2022-12-13T05:22:19.738Z,-9.93
2022-12-13T05:25:22.034Z,-9.92
2022-12-13T05:28:28.180Z,-9.89
2022-12-13T05:31:30.459Z,-9.80
2022-12-13T05:34:31.970Z,-9.78
2022-12-13T05:37:34.875Z,-9.69
2022-12-13T05:40:36.670Z,-9.71
2022-12-13T05:43:43.097Z,-9.65
2022-12-13T05:46:45.408Z,-9.64
2022-12-13T05:49:46.935Z,-9.67
2022-12-13T05:52:48.476Z,-9.75
2022-12-13T05:55:50.137Z,-9.75
2022-12-13T05:58:53.369Z,-9.85
2022-12-13T06:01:57.010Z,-9.92
2022-12-13T06:04:58.683Z,-9.97
2022-12-13T06:08:00.509Z,-9.75
2022-12-13T06:11:11.489Z,-9.67
2022-12-13T06:14:21.727Z,-9.49
2022-12-13T06:17:25.208Z,-9.36
2022-12-13T06:20:27.023Z,-9.30
2022-12-13T06:23:31.185Z,-9.13
2022-12-13T06:26:32.748Z,-9.06
2022-12-13T06:29:34.303Z,-9.11
2022-12-13T06:32:38.911Z,-9.01
2022-12-13T06:35:42.805Z,-8.97
2022-12-13T06:38:44.339Z,-8.82
2022-12-13T06:41:45.854Z,-8.67
2022-12-13T06:44:47.464Z,-8.69
2022-12-13T06:47:49.061Z,-8.61
2022-12-13T06:50:50.580Z,-8.45
2022-12-13T06:53:52.120Z,-8.40
2022-12-13T06:56:53.663Z,-8.32
2022-12-13T06:59:55.289Z,-8.30
2022-12-13T07:02:56.974Z,-8.27
2022-12-13T07:05:59.959Z,-8.24
2022-12-13T07:09:03.708Z,-8.37
2022-12-13T07:12:05.542Z,-8.26
2022-12-13T07:15:07.803Z,-8.12
2022-12-13T07:18:09.368Z,-8.16
2022-12-13T07:21:21.353Z,-8.12
2022-12-13T07:24:23.538Z,-7.99
2022-12-13T07:27:25.116Z,-7.91
2022-12-13T07:30:26.739Z,-7.88
2022-12-13T07:33:32.331Z,-7.87
2022-12-13T07:36:33.837Z,-7.94
2022-12-13T07:39:35.343Z,-7.85
2022-12-13T07:42:36.863Z,-7.79
2022-12-13T07:45:39.490Z,-7.74
2022-12-13T07:48:41.285Z,-7.57
2022-12-13T07:51:42.798Z,-7.53
2022-12-13T07:54:44.356Z,-7.56
2022-12-13T07:57:45.914Z,-7.48
2022-12-13T08:00:47.534Z,-7.43
2022-12-13T08:03:50.468Z,-7.24
2022-12-13T08:06:52.009Z,-7.09
2022-12-13T08:09:55.220Z,-6.94
2022-12-13T08:12:56.984Z,-6.76
2022-12-13T08:16:04.039Z,-6.87
2022-12-13T08:19:05.631Z,-6.70
2022-12-13T08:22:14.411Z,-6.56
2022-12-13T08:25:16.016Z,-6.47
2022-12-13T08:28:18.488Z,-6.37
2022-12-13T08:31:20.067Z,-6.22
2022-12-13T08:34:21.637Z,-6.22
2022-12-13T08:37:23.119Z,-6.29
2022-12-13T08:40:24.674Z,-6.07
2022-12-13T08:43:26.299Z,-5.87
2022-12-13T08:46:27.999Z,-5.81
2022-12-13T08:49:29.794Z,-5.68
2022-12-13T08:52:39.301Z,-5.68
2022-12-13T08:55:42.658Z,-5.61
2022-12-13T08:58:44.982Z,-5.49
2022-12-13T09:01:46.799Z,-5.46
2022-12-13T09:04:49.198Z,-5.41
2022-12-13T09:07:55.388Z,-5.31
2022-12-13T09:11:01.355Z,-5.32
2022-12-13T09:14:14.248Z,-5.17
2022-12-13T09:17:16.635Z,-5.11
2022-12-13T09:20:29.843Z,-5.10
2022-12-13T09:23:31.647Z,-5.07
2022-12-13T09:26:37.727Z,-4.85
2022-12-13T09:29:40.386Z,-4.69
2022-12-13T09:32:43.557Z,-4.64
2022-12-13T09:35:45.400Z,-4.57
2022-12-13T09:38:47.631Z,-4.41
2022-12-13T09:42:00.745Z,-4.19
2022-12-13T09:45:06.469Z,-4.18
2022-12-13T09:48:24.792Z,-4.05
2022-12-13T09:51:43.540Z,-3.78
2022-12-13T09:54:49.005Z,-3.79
2022-12-13T09:57:52.501Z,-3.68
2022-12-13T10:00:56.684Z,-3.71
2022-12-13T10:04:00.230Z,-3.47
2022-12-13T10:07:03.623Z,-3.25
2022-12-13T10:10:05.396Z,-3.20
2022-12-13T10:13:24.288Z,-3.10
2022-12-13T10:16:36.395Z,-3.06
2022-12-13T10:19:44.152Z,-3.15
2022-12-13T10:23:08.014Z,-3.33
2022-12-13T10:26:14.776Z,-3.36
2022-12-13T10:29:25.906Z,-3.35
2022-12-13T10:32:28.268Z,-3.46
2022-12-13T10:35:37.404Z,-3.30
2022-12-13T10:38:41.641Z,-3.11
2022-12-13T10:41:43.380Z,-3.07
2022-12-13T10:44:45.756Z,-3.17
2022-12-13T10:47:47.409Z,-3.24
2022-12-13T10:51:02.578Z,-3.12
2022-12-13T10:54:05.263Z,-3.19
2022-12-13T10:57:11.455Z,-3.48
2022-12-13T11:00:39.007Z,-3.42
2022-12-13T11:03:40.862Z,-3.64
2022-12-13T11:06:47.437Z,-3.71
2022-12-13T11:09:52.532Z,-3.55
2022-12-13T11:13:01.654Z,-3.58
2022-12-13T11:16:05.319Z,-3.76
2022-12-13T11:19:18.373Z,-3.90
2022-12-13T11:22:32.247Z,-3.86
2022-12-13T11:25:40.609Z,-3.80
2022-12-13T11:28:55.635Z,-3.74
2022-12-13T11:32:11.031Z,-3.66
2022-12-13T11:35:24.922Z,-3.50
2022-12-13T11:38:36.193Z,-3.59
2022-12-13T11:42:09.699Z,-3.86
2022-12-13T11:45:24.363Z,-3.93
2022-12-13T11:48:51.007Z,-3.76
2022-12-13T11:51:59.876Z,-3.96
2022-12-13T11:55:17.525Z,-3.94
2022-12-13T11:59:09.565Z,-3.96
2022-12-13T12:02:29.493Z,-3.87
2022-12-13T12:05:37.210Z,-3.90
2022-12-13T12:08:47.151Z,-3.65
2022-12-13T12:12:00.280Z,-3.63
2022-12-13T12:15:15.618Z,-3.67
2022-12-13T12:18:18.141Z,-3.78
2022-12-13T12:21:56.518Z,-3.82
2022-12-13T12:25:11.785Z,-3.98
2022-12-13T12:28:50.974Z,-3.98
2022-12-13T12:32:23.967Z,-3.99
2022-12-13T12:35:33.107Z,-4.02
2022-12-13T12:38:34.657Z,-4.02
2022-12-13T12:42:19.692Z,-4.11
2022-12-13T12:45:57.551Z,-4.26
2022-12-13T12:49:37.650Z,-4.17
2022-12-13T12:53:02.920Z,-4.03
2022-12-13T12:56:25.155Z,-3.90
2022-12-13T12:59:45.797Z,-3.91
2022-12-13T13:02:53.130Z,-3.81
2022-12-13T13:06:03.884Z,-3.68
2022-12-13T13:09:09.128Z,-3.76
2022-12-13T13:12:30.035Z,-3.58
2022-12-13T13:15:32.509Z,-3.24
2022-12-13T13:18:51.639Z,-3.20
2022-12-13T13:22:02.103Z,-2.98
2022-12-13T13:25:07.193Z,-3.04
2022-12-13T13:28:18.857Z,-3.05
2022-12-13T13:31:20.505Z,-2.76
2022-12-13T13:34:25.587Z,-2.73
2022-12-13T13:37:44.963Z,-2.86
2022-12-13T13:40:46.535Z,-2.50
2022-12-13T13:43:48.180Z,-2.34
2022-12-13T13:47:14.401Z,-2.14
2022-12-13T13:50:35.608Z,-2.02
2022-12-13T13:53:56.544Z,-1.82
2022-12-13T13:57:38.546Z,-1.82
2022-12-13T14:00:50.344Z,-1.83
2022-12-13T14:04:31.665Z,-2.11
2022-12-13T14:07:36.290Z,-2.36
2022-12-13T14:11:04.882Z,-2.57
2022-12-13T14:14:38.561Z,-2.65
2022-12-13T14:18:08.028Z,-2.81
2022-12-13T14:21:41.665Z,-3.08
2022-12-13T14:24:55.293Z,-3.26
2022-12-13T14:28:22.145Z,-3.41
2022-12-13T14:31:36.992Z,-3.26
2022-12-13T14:34:39.446Z,-3.35
2022-12-13T14:37:40.947Z,-3.33
2022-12-13T14:40:52.104Z,-3.21
2022-12-13T14:43:53.695Z,-3.20
2022-12-13T14:46:59.006Z,-3.24
2022-12-13T14:50:00.628Z,-3.30
2022-12-13T14:53:05.370Z,-3.25
2022-12-13T14:56:18.723Z,-3.36
2022-12-13T14:59:31.310Z,-3.38
2022-12-13T15:02:33.701Z,-3.36
2022-12-13T15:05:48.797Z,-3.36
2022-12-13T15:08:52.050Z,-3.40
2022-12-13T15:11:54.074Z,-3.45
2022-12-13T15:15:00.037Z,-3.43
2022-12-13T15:18:11.106Z,-3.43
2022-12-13T15:21:29.983Z,-3.42
2022-12-13T15:24:40.951Z,-3.46
2022-12-13T15:27:51.154Z,-3.53
2022-12-13T15:30:52.844Z,-3.49
2022-12-13T15:34:00.967Z,-3.56
2022-12-13T15:37:29.708Z,-3.62
2022-12-13T15:40:31.973Z,-3.73
2022-12-13T15:43:43.533Z,-3.82
2022-12-13T15:46:48.047Z,-3.76
2022-12-13T15:49:59.950Z,-3.72
2022-12-13T15:53:06.433Z,-3.68
2022-12-13T15:57:01.680Z,-3.67
2022-12-13T16:00:07.265Z,-3.80
2022-12-13T16:03:21.546Z,-3.83
2022-12-13T16:06:26.458Z,-3.87
2022-12-13T16:09:33.459Z,-3.79
2022-12-13T16:12:47.798Z,-3.70
2022-12-13T16:15:53.180Z,-3.65
2022-12-13T16:19:17.901Z,-3.69
2022-12-13T16:22:21.833Z,-3.64
2022-12-13T16:25:23.515Z,-3.64
2022-12-13T16:28:26.091Z,-3.65
2022-12-13T16:31:48.945Z,-3.75
2022-12-13T16:34:52.091Z,-3.74
2022-12-13T16:37:53.698Z,-3.81
2022-12-13T16:41:08.832Z,-3.83
2022-12-13T16:44:21.915Z,-3.94
2022-12-13T16:47:36.428Z,-4.01
2022-12-13T16:55:23.791Z,-4.07
2022-12-13T16:58:25.932Z,-3.91
2022-12-13T17:01:27.576Z,-3.79
2022-12-13T17:04:29.126Z,-3.70
2022-12-13T17:07:30.840Z,-3.68
2022-12-13T17:10:32.422Z,-3.67
2022-12-13T17:13:34.739Z,-3.73
2022-12-13T17:16:36.400Z,-3.62
2022-12-13T17:19:38.076Z,-3.58
2022-12-13T17:22:39.570Z,-3.60
2022-12-13T17:25:41.320Z,-3.54
2022-12-13T17:28:42.917Z,-3.50
2022-12-13T17:31:44.789Z,-3.50
2022-12-13T17:34:46.294Z,-3.46
2022-12-13T17:37:47.971Z,-3.46
2022-12-13T17:40:54.868Z,-3.43
2022-12-13T17:44:03.230Z,-3.39
2022-12-13T17:47:04.931Z,-3.45
2022-12-13T17:50:06.722Z,-3.43
2022-12-13T17:53:08.245Z,-3.39
2022-12-13T17:56:12.567Z,-3.34
2022-12-13T17:59:15.350Z,-3.24
2022-12-13T18:02:22.644Z,-3.21
2022-12-13T18:05:27.541Z,-3.19
2022-12-13T18:08:29.074Z,-3.26
2022-12-13T18:11:33.665Z,-3.24
2022-12-13T18:14:36.648Z,-3.22
2022-12-13T18:18:09.465Z,-3.22
2022-12-13T18:21:07.408Z,-3.17
2022-12-13T18:24:09.686Z,-3.13
2022-12-13T18:27:17.817Z,-3.10
2022-12-13T18:30:19.558Z,-3.19
2022-12-13T18:33:31.104Z,-3.21
2022-12-13T18:36:33.262Z,-3.22
2022-12-13T18:39:35.011Z,-3.22
2022-12-13T18:42:36.679Z,-3.22
2022-12-13T18:45:38.210Z,-3.19
2022-12-13T18:48:39.984Z,-3.19
2022-12-13T18:51:45.986Z,-3.29
2022-12-13T18:54:54.579Z,-3.22
2022-12-13T18:57:56.673Z,-3.16
2022-12-13T19:00:58.581Z,-3.14
2022-12-13T19:04:00.360Z,-3.12
2022-12-13T19:07:01.988Z,-3.12
2022-12-13T19:10:05.224Z,-3.09
2022-12-13T19:13:06.709Z,-3.18
2022-12-13T19:16:10.989Z,-3.17
2022-12-13T19:19:13.178Z,-3.20
2022-12-13T19:22:15.765Z,-3.17
2022-12-13T19:25:17.343Z,-3.26
2022-12-13T19:28:18.971Z,-3.23
2022-12-13T19:31:23.160Z,-3.24
2022-12-13T19:34:28.588Z,-3.20
2022-12-13T19:37:30.159Z,-3.12
2022-12-13T19:40:31.758Z,-3.05
2022-12-13T19:43:36.878Z,-3.04
2022-12-13T19:46:38.515Z,-3.00
2022-12-13T19:49:40.078Z,-3.04
2022-12-13T19:52:41.988Z,-3.10
2022-12-13T19:55:48.329Z,-3.14
2022-12-13T19:58:51.115Z,-3.12
2022-12-13T20:01:52.764Z,-3.11
2022-12-13T20:04:54.428Z,-3.16
2022-12-13T20:07:58.045Z,-3.22
2022-12-13T20:11:09.111Z,-3.33
2022-12-13T20:14:10.614Z,-3.44
2022-12-13T20:17:12.089Z,-3.60
2022-12-13T20:20:13.792Z,-3.50
2022-12-13T20:23:15.924Z,-3.37
2022-12-13T20:26:23.170Z,-3.25
2022-12-13T20:29:24.945Z,-3.19
2022-12-13T20:32:26.806Z,-3.16
2022-12-13T20:35:28.510Z,-3.09
2022-12-13T20:38:30.445Z,-3.02
2022-12-13T20:41:34.458Z,-2.95
2022-12-13T20:44:36.568Z,-2.87
2022-12-13T20:47:38.285Z,-2.88
2022-12-13T20:50:40.005Z,-2.91
2022-12-13T20:53:46.878Z,-2.86
2022-12-13T20:56:48.503Z,-2.84
2022-12-13T20:59:50.086Z,-2.84
2022-12-13T21:02:51.699Z,-2.88
2022-12-13T21:06:00.281Z,-2.81
2022-12-13T21:09:03.755Z,-2.89
2022-12-13T21:12:05.456Z,-2.87
2022-12-13T21:15:11.017Z,-2.82
2022-12-13T21:18:17.931Z,-2.82
2022-12-13T21:21:19.948Z,-2.79
2022-12-13T21:24:23.728Z,-2.86
2022-12-13T21:27:25.370Z,-2.91
2022-12-13T21:30:26.888Z,-2.84
2022-12-13T21:33:29.347Z,-2.85
2022-12-13T21:36:34.498Z,-2.82
2022-12-13T21:39:35.999Z,-2.77
2022-12-13T21:42:38.570Z,-2.80
2022-12-13T21:45:42.892Z,-2.87
2022-12-13T21:48:45.941Z,-2.88
2022-12-13T21:51:48.397Z,-2.85
2022-12-13T21:54:52.917Z,-2.88
2022-12-13T21:58:20.486Z,-2.91
2022-12-13T22:01:24.718Z,-2.71
2022-12-13T22:04:26.292Z,-2.74
2022-12-13T22:07:30.008Z,-2.73
2022-12-13T22:10:31.723Z,-2.71
2022-12-13T22:13:33.381Z,-2.65
2022-12-13T22:16:35.091Z,-2.62
2022-12-13T22:19:36.611Z,-2.64
2022-12-13T22:22:39.819Z,-2.69
2022-12-13T22:25:41.306Z,-2.66
2022-12-13T22:28:42.833Z,-2.69
2022-12-13T22:31:44.516Z,-2.86
2022-12-13T22:34:50.634Z,-2.87
2022-12-13T22:37:52.840Z,-3.05
2022-12-13T22:40:54.310Z,-3.06
2022-12-13T22:43:56.281Z,-3.08
2022-12-13T22:46:57.807Z,-3.21
2022-12-13T22:49:59.388Z,-3.09
2022-12-13T22:53:01.702Z,-2.93
2022-12-13T22:56:11.478Z,-2.88
2022-12-13T22:59:13.017Z,-2.78
2022-12-13T23:02:14.752Z,-2.72
2022-12-13T23:05:16.640Z,-2.78
2022-12-13T23:08:18.081Z,-2.75
2022-12-13T23:11:39.031Z,-2.71
2022-12-13T23:14:40.507Z,-2.62
2022-12-13T23:17:41.999Z,-2.55
2022-12-13T23:20:45.391Z,-2.56
2022-12-13T23:23:50.144Z,-2.53
2022-12-13T23:26:51.728Z,-2.62
2022-12-13T23:29:53.213Z,-2.56
2022-12-13T23:32:55.656Z,-2.56
2022-12-13T23:36:06.304Z,-2.52
2022-12-13T23:39:11.493Z,-2.54
2022-12-13T23:42:13.363Z,-2.57
2022-12-13T23:45:15.212Z,-2.55
2022-12-13T23:48:16.705Z,-2.47
2022-12-13T23:51:18.951Z,-2.45
2022-12-13T23:54:20.508Z,-2.49
2022-12-13T23:57:22.019Z,-2.49
